Time;durP1;ratioP1;P1;durP2;ratioP2;P2;SDS_P1;SDS_P2;PMS_P1;PMS_P2;Temp;Humidity;BMP_temperature;BMP_pressure;BME280_temperature;BME280_humidity;BME280_pressure;Samples;Min_cycle;Max_cycle;Signal;HPM_P1;HPM_P2
2022/12/04 00:01:21;;;;;;;33.55;16.45;;;;;;;6.38;100.00;98093.94;4945823;28;20063;-57
2022/12/04 00:03:51;;;;;;;34.45;16.95;;;;;;;6.68;100.00;98088.38;4946044;28;20059;-63
2022/12/04 00:06:19;;;;;;;30.60;15.48;;;;;;;6.82;100.00;98082.75;4945594;28;20288;-62
2022/12/04 00:08:47;;;;;;;31.48;16.20;;;;;;;6.86;100.00;98079.03;4945803;28;20514;-62
2022/12/04 00:11:16;;;;;;;31.60;16.65;;;;;;;6.99;100.00;98080.81;4944491;29;20082;-57
2022/12/04 00:13:43;;;;;;;36.00;17.38;;;;;;;7.14;100.00;98085.88;4946004;29;20279;-57
2022/12/04 00:16:12;;;;;;;32.53;16.80;;;;;;;7.25;100.00;98070.66;4943873;29;20569;-62
2022/12/04 00:18:39;;;;;;;34.47;17.35;;;;;;;7.32;100.00;98073.72;4945789;28;20065;-62
2022/12/04 00:21:08;;;;;;;28.45;14.80;;;;;;;7.43;100.00;98072.25;4945514;28;20154;-62
2022/12/04 00:23:35;;;;;;;30.58;15.63;;;;;;;7.44;100.00;98076.66;4945818;28;20501;-58
2022/12/04 00:26:09;;;;;;;32.08;15.90;;;;;;;7.40;100.00;98078.44;4946006;28;20065;-56
2022/12/04 00:28:36;;;;;;;27.33;14.20;;;;;;;7.45;100.00;98083.78;4945571;28;20233;-57
2022/12/04 00:31:07;;;;;;;29.63;15.40;;;;;;;7.39;100.00;98076.00;4946428;28;20542;-62
2022/12/04 00:33:35;;;;;;;33.53;16.10;;;;;;;7.49;100.00;98093.00;4945756;28;20059;-57
2022/12/04 00:36:08;;;;;;;29.95;15.07;;;;;;;7.25;100.00;98020.25;4946042;28;20087;-62
2022/12/04 00:38:36;;;;;;;29.38;14.68;;;;;;;7.32;100.00;98070.97;4945935;28;20055;-57
2022/12/04 00:41:03;;;;;;;28.33;15.23;;;;;;;7.36;100.00;98077.47;4945617;28;20134;-62
2022/12/04 00:43:30;;;;;;;31.65;16.90;;;;;;;7.18;100.00;98037.25;4944352;28;20051;-63
2022/12/04 00:45:57;;;;;;;30.08;15.52;;;;;;;7.52;100.00;98081.34;4945491;28;20570;-57
2022/12/04 00:48:24;;;;;;;31.20;15.27;;;;;;;7.42;100.00;98070.66;4945618;28;20078;-63
2022/12/04 00:50:50;;;;;;;36.40;15.65;;;;;;;7.56;100.00;98071.28;4944501;28;20213;-62
2022/12/04 00:53:17;;;;;;;30.15;14.40;;;;;;;7.59;100.00;98087.19;4949195;28;20082;-62
2022/12/04 00:55:44;;;;;;;31.05;15.13;;;;;;;7.15;100.00;98004.84;4948702;28;20134;-63
2022/12/04 00:58:11;;;;;;;30.85;15.25;;;;;;;7.63;100.00;98082.63;4948760;28;20062;-63
2022/12/04 01:00:40;;;;;;;25.55;14.10;;;;;;;7.06;100.00;97995.78;4946906;29;20126;-62
2022/12/04 01:03:08;;;;;;;31.05;16.05;;;;;;;7.68;100.00;98087.19;4947660;29;20067;-60
2022/12/04 01:05:43;;;;;;;32.97;15.48;;;;;;;7.60;100.00;98093.50;4948775;28;20102;-57
2022/12/04 01:08:11;;;;;;;33.05;15.60;;;;;;;7.68;100.00;98085.22;4948770;28;20355;-62
2022/12/04 01:10:40;;;;;;;34.78;16.73;;;;;;;7.72;100.00;98080.69;4948552;28;20293;-61
2022/12/04 01:13:07;;;;;;;36.35;16.70;;;;;;;7.72;100.00;98101.94;4948396;28;20113;-57
2022/12/04 01:15:38;;;;;;;32.25;15.50;;;;;;;7.64;100.00;98077.94;4948545;28;20497;-57
2022/12/04 01:18:05;;;;;;;29.77;14.02;;;;;;;7.73;100.00;98082.28;4947908;28;20109;-62
2022/12/04 01:20:32;;;;;;;30.00;14.88;;;;;;;7.72;100.00;98086.19;4947055;28;20114;-57
2022/12/04 01:22:59;;;;;;;31.23;15.40;;;;;;;7.12;100.00;98013.75;4962769;28;20096;-62
2022/12/04 01:25:25;;;;;;;34.50;15.57;;;;;;;7.73;100.00;98081.47;4946978;29;20169;-62
2022/12/04 01:27:52;;;;;;;31.77;15.98;;;;;;;7.46;100.00;98077.13;4948068;28;20051;-62
2022/12/04 01:30:19;;;;;;;34.70;16.40;;;;;;;7.27;100.00;98068.38;4948423;28;20529;-62
2022/12/04 01:32:45;;;;;;;36.85;16.58;;;;;;;7.56;100.00;98159.50;4947856;28;20055;-61
2022/12/04 01:35:12;;;;;;;34.90;16.73;;;;;;;7.49;100.00;98092.22;4948551;28;20578;-56
2022/12/04 01:37:38;;;;;;;35.30;16.23;;;;;;;7.49;100.00;98087.50;4948145;28;20047;-57
2022/12/04 01:40:06;;;;;;;32.13;14.70;;;;;;;7.54;100.00;98084.59;4947873;28;20511;-57
2022/12/04 01:42:32;;;;;;;34.25;16.85;;;;;;;7.49;100.00;98087.50;4948204;28;20050;-62
2022/12/04 01:45:37;;;;;;;40.10;17.33;;;;;;;7.22;100.00;98076.78;4946502;29;20106;-61
2022/12/04 01:48:15;;;;;;;39.50;16.90;;;;;;;7.12;100.00;98076.31;4947793;29;20055;-57
2022/12/04 01:50:43;;;;;;;41.22;17.55;;;;;;;6.73;100.00;98027.66;4947736;28;20066;-57
2022/12/04 01:53:11;;;;;;;36.70;17.60;;;;;;;6.69;100.00;98100.19;4947839;28;20051;-57
2022/12/04 01:55:38;;;;;;;42.28;18.38;;;;;;;6.12;100.00;98028.63;4947862;28;20138;-61
2022/12/04 01:58:06;;;;;;;46.28;18.50;;;;;;;5.96;100.00;98012.84;4946366;29;20087;-57
2022/12/04 02:00:33;;;;;;;50.75;20.38;;;;;;;6.39;100.00;98077.09;4946370;29;20117;-62
2022/12/04 02:03:00;;;;;;;48.75;20.33;;;;;;;5.79;100.00;98018.22;4937052;28;20610;-62
2022/12/04 02:05:27;;;;;;;53.70;18.85;;;;;;;6.10;100.00;98074.06;4947515;29;20066;-57
2022/12/04 02:07:57;;;;;;;58.00;22.23;;;;;;;6.16;100.00;98078.31;4947899;28;20352;-57
2022/12/04 02:10:36;;;;;;;62.50;22.20;;;;;;;6.29;100.00;98084.84;4947605;28;20047;-62
2022/12/04 02:13:27;;;;;;;61.00;21.27;;;;;;;6.13;100.00;98071.47;4947332;28;20134;-61
2022/12/04 02:16:36;;;;;;;64.63;23.13;;;;;;;6.28;100.00;98077.69;4947551;29;20482;-60
2022/12/04 02:19:12;;;;;;;65.65;20.73;;;;;;;6.00;100.00;98066.09;4961206;28;20051;-63
2022/12/04 02:21:44;;;;;;;66.65;21.15;;;;;;;6.00;100.00;98085.34;4947427;29;20134;-57
2022/12/04 02:24:41;;;;;;;73.05;23.65;;;;;;;6.15;100.00;98079.41;4946947;28;20337;-62
2022/12/04 02:27:24;;;;;;;;;;;;;;;6.04;100.00;98072.56;4946412;29;20783;-56
2022/12/04 02:29:58;;;;;;;60.03;19.73;;;;;;;6.21;100.00;98061.66;4946963;28;19958;-62
2022/12/04 02:32:39;;;;;;;76.13;25.33;;;;;;;6.04;100.00;98067.88;4946898;28;20135;-61
2022/12/04 02:35:14;;;;;;;63.95;20.92;;;;;;;6.33;100.00;98070.13;4947281;28;20134;-57
2022/12/04 02:37:46;;;;;;;74.30;23.35;;;;;;;6.04;100.00;98039.56;4946755;28;20515;-62
2022/12/04 02:40:22;;;;;;;74.93;25.02;;;;;;;6.15;100.00;98018.91;4947154;28;20207;-62
2022/12/04 02:43:18;;;;;;;70.15;23.08;;;;;;;6.73;100.00;98085.50;4945635;29;20109;-62
2022/12/04 02:45:52;;;;;;;60.15;21.70;;;;;;;6.77;100.00;98052.59;4946905;29;20055;-58
2022/12/04 02:48:20;;;;;;;73.93;23.05;;;;;;;6.95;100.00;98066.09;4946753;29;20118;-58
2022/12/04 02:50:52;;;;;;;77.45;22.65;;;;;;;6.76;100.00;98060.06;4946563;28;20055;-61
2022/12/04 02:53:26;;;;;;;81.28;25.17;;;;;;;5.43;100.00;97874.66;4946732;28;20055;-62
2022/12/04 02:55:57;;;;;;;62.42;22.73;;;;;;;5.84;100.00;97990.63;4947041;28;20590;-56
2022/12/04 02:58:34;;;;;;;84.65;24.88;;;;;;;6.43;100.00;98078.09;4946489;28;20047;-56
2022/12/04 03:01:18;;;;;;;70.93;23.40;;;;;;;6.74;100.00;98087.09;4945099;29;20113;-58
2022/12/04 03:04:04;;;;;;;70.63;23.55;;;;;;;6.73;100.00;98074.47;4946517;28;20516;-57
2022/12/04 03:06:35;;;;;;;67.63;20.27;;;;;;;6.76;100.00;98054.56;4946202;28;20055;-57
2022/12/04 03:09:16;;;;;;;58.60;19.88;;;;;;;6.99;100.00;98075.31;4946783;28;20495;-62
2022/12/04 03:11:49;;;;;;;59.40;20.15;;;;;;;6.95;100.00;98071.59;4946148;29;20613;-61
2022/12/04 03:14:26;;;;;;;54.08;20.08;;;;;;;6.86;100.00;98067.22;4946177;28;20330;-61
2022/12/04 03:17:01;;;;;;;53.58;19.42;;;;;;;6.97;100.00;98069.31;4946703;28;20502;-59
2022/12/04 03:19:36;;;;;;;56.80;19.27;;;;;;;6.55;100.00;98006.72;4946895;28;20145;-57
2022/12/04 03:22:06;;;;;;;50.22;18.17;;;;;;;6.57;100.00;98003.66;4946473;28;20142;-56
2022/12/04 03:24:37;;;;;;;54.60;19.13;;;;;;;6.50;100.00;97982.09;4944540;29;20047;-62
2022/12/04 03:27:13;;;;;;;51.28;19.15;;;;;;;7.20;100.00;98083.78;4944685;29;20142;-62
2022/12/04 03:29:53;;;;;;;52.25;18.20;;;;;;;6.83;100.00;98004.53;4945936;28;20354;-57
2022/12/04 03:32:54;;;;;;;56.95;19.10;;;;;;;6.94;100.00;98020.38;4945822;28;20518;-61
2022/12/04 03:35:26;;;;;;;56.38;17.23;;;;;;;7.32;100.00;98068.22;4944849;29;20114;-62
2022/12/04 03:38:11;;;;;;;58.65;19.00;;;;;;;7.35;100.00;98075.03;4946278;28;20067;-60
2022/12/04 03:40:47;;;;;;;78.55;21.42;;;;;;;7.44;100.00;98071.16;4945898;29;20134;-57
2022/12/04 03:43:26;;;;;;;59.90;18.75;;;;;;;7.36;100.00;98065.63;4946130;28;20215;-62
2022/12/04 03:46:01;;;;;;;57.38;18.23;;;;;;;7.26;100.00;98061.25;4944598;29;20125;-57
2022/12/04 03:48:41;;;;;;;58.45;19.42;;;;;;;7.30;100.00;98062.22;4945770;28;20114;-63
2022/12/04 03:51:17;;;;;;;66.35;19.95;;;;;;;7.31;100.00;98069.34;4945726;28;20159;-57
2022/12/04 03:54:02;;;;;;;67.70;21.02;;;;;;;7.19;100.00;98041.63;4945696;28;20059;-59
2022/12/04 03:56:34;;;;;;;46.28;17.05;;;;;;;7.46;100.00;98077.13;4945798;28;20129;-61
2022/12/04 03:59:13;;;;;;;52.17;17.42;;;;;;;7.46;100.00;98066.09;4944206;29;20499;-62
2022/12/04 04:01:45;;;;;;;47.20;16.88;;;;;;;7.30;100.00;98066.94;4941777;28;20470;-62
2022/12/04 04:04:17;;;;;;;46.33;17.47;;;;;;;7.14;100.00;98014.25;4965355;28;20093;-58
2022/12/04 04:06:55;;;;;;;51.67;17.67;;;;;;;7.35;100.00;98075.81;4964912;28;20389;-56
2022/12/04 04:09:28;;;;;;;47.22;16.25;;;;;;;7.33;100.00;98078.09;4965388;28;20869;-62
2022/12/04 04:12:01;;;;;;;43.13;16.65;;;;;;;7.06;100.00;98083.94;4965179;28;20074;-56
2022/12/04 04:26:40;;;;;;;43.83;15.50;;;;;;;7.20;100.00;98092.03;4968382;28;20502;-57
2022/12/04 04:29:09;;;;;;;42.80;15.50;;;;;;;7.21;100.00;98093.66;4968232;28;20136;-58
2022/12/04 04:31:44;;;;;;;49.08;18.42;;;;;;;7.23;100.00;98100.47;4968617;28;20054;-57
2022/12/04 04:34:20;;;;;;;45.72;14.52;;;;;;;7.05;100.00;98103.53;4968323;28;20576;-62
2022/12/04 04:37:18;;;;;;;39.28;14.15;;;;;;;6.38;100.00;98001.19;4968536;28;20078;-61
2022/12/04 04:39:58;;;;;;;52.50;17.20;;;;;;;6.70;100.00;98053.06;4967156;28;20089;-57
2022/12/04 04:42:50;;;;;;;59.47;21.98;;;;;;;7.08;100.00;98094.63;4966737;28;20058;-62
2022/12/04 04:45:26;;;;;;;44.45;16.95;;;;;;;7.08;100.00;98100.94;4967016;28;20063;-61
2022/12/04 04:48:02;;;;;;;50.13;18.60;;;;;;;6.75;100.00;98055.66;4968258;28;20055;-62
2022/12/04 04:50:30;;;;;;;49.42;15.43;;;;;;;6.37;100.00;98021.56;4968657;28;20486;-62
2022/12/04 04:53:03;;;;;;;49.67;16.67;;;;;;;6.98;100.00;98116.97;4968255;28;20130;-58
2022/12/04 04:55:34;;;;;;;39.72;14.82;;;;;;;6.86;100.00;98103.00;4968247;28;20500;-57
2022/12/04 04:58:10;;;;;;;43.00;17.77;;;;;;;6.95;100.00;98101.91;4982576;28;20054;-62
2022/12/04 05:00:37;;;;;;;37.17;14.77;;;;;;;6.97;100.00;98096.84;4968274;28;20169;-56
2022/12/04 05:03:05;;;;;;;40.53;15.65;;;;;;;7.02;100.00;98102.22;4967906;28;20051;-61
2022/12/04 05:05:31;;;;;;;45.58;16.65;;;;;;;7.10;100.00;98098.66;4968047;28;20054;-62
2022/12/04 05:07:58;;;;;;;42.10;16.08;;;;;;;6.85;100.00;98095.88;4967659;28;20109;-57
2022/12/04 05:10:25;;;;;;;33.47;13.68;;;;;;;6.90;100.00;98085.53;4966252;28;20106;-62
2022/12/04 05:12:51;;;;;;;32.65;12.63;;;;;;;7.08;100.00;98106.44;4966328;28;20485;-62
2022/12/04 05:15:18;;;;;;;33.70;13.13;;;;;;;6.64;100.00;98045.31;4967582;28;20231;-62
2022/12/04 05:17:44;;;;;;;39.03;14.02;;;;;;;7.04;100.00;98104.66;4966107;28;20055;-62
2022/12/04 05:20:11;;;;;;;35.85;14.02;;;;;;;7.00;100.00;98112.75;4967937;28;20055;-56
2022/12/04 05:22:38;;;;;;;33.03;12.77;;;;;;;6.98;100.00;98098.50;4967660;28;20055;-63
2022/12/04 05:25:05;;;;;;;35.45;13.88;;;;;;;6.78;100.00;98060.53;4967480;28;20950;-56
2022/12/04 05:27:31;;;;;;;43.42;16.33;;;;;;;7.10;100.00;98104.19;4967103;28;20063;-62
2022/12/04 05:29:58;;;;;;;32.00;12.95;;;;;;;6.89;100.00;98125.19;4967117;28;20486;-57
2022/12/04 05:32:27;;;;;;;33.10;13.63;;;;;;;7.03;100.00;98112.13;4967557;28;20145;-58
2022/12/04 05:34:55;;;;;;;32.20;12.55;;;;;;;7.09;100.00;98119.09;4967714;28;20051;-62
2022/12/04 05:37:22;;;;;;;32.72;12.43;;;;;;;7.09;100.00;98116.34;4966585;28;20433;-62
2022/12/04 05:39:48;;;;;;;31.17;12.68;;;;;;;6.99;100.00;98119.41;4967700;28;20063;-62
2022/12/04 05:42:15;;;;;;;29.65;11.82;;;;;;;7.02;100.00;98110.47;4967070;28;20093;-56
2022/12/04 05:44:42;;;;;;;29.23;14.77;;;;;;;7.01;100.00;98111.63;4968010;28;20138;-56
2022/12/04 05:47:09;;;;;;;28.60;12.05;;;;;;;7.00;100.00;98121.00;4967262;28;20058;-62
2022/12/04 05:49:36;;;;;;;25.88;11.25;;;;;;;6.73;100.00;98129.53;4967796;28;20063;-59
2022/12/04 05:52:04;;;;;;;32.10;13.57;;;;;;;6.78;100.00;98109.31;4965733;28;20077;-62
2022/12/04 05:54:31;;;;;;;23.75;10.02;;;;;;;6.54;100.00;98079.44;4966957;28;20151;-62
2022/12/04 05:56:58;;;;;;;21.17;9.25;;;;;;;6.93;100.00;98134.44;4967018;28;20065;-61
2022/12/04 05:59:24;;;;;;;21.90;10.30;;;;;;;6.69;100.00;98090.00;4967054;28;20085;-62
2022/12/04 06:01:51;;;;;;;17.15;8.43;;;;;;;6.62;100.00;98088.84;4966540;28;20137;-62
2022/12/04 06:04:17;;;;;;;17.90;9.18;;;;;;;6.76;100.00;98145.41;4967200;28;20046;-62
2022/12/04 06:06:44;;;;;;;18.10;9.00;;;;;;;6.04;100.00;97990.06;4966367;28;20362;-57
2022/12/04 06:09:11;;;;;;;21.15;9.98;;;;;;;6.70;100.00;98143.91;4966826;28;20051;-63
2022/12/04 06:11:40;;;;;;;21.88;8.98;;;;;;;6.78;100.00;98154.16;4966528;28;20495;-56
2022/12/04 06:14:10;;;;;;;32.35;15.82;;;;;;;6.67;100.00;98144.56;4966755;28;20059;-62
2022/12/04 06:16:39;;;;;;;17.73;9.73;;;;;;;6.41;100.00;98116.13;4966465;28;20432;-57
2022/12/04 06:19:13;;;;;;;19.13;9.23;;;;;;;6.59;100.00;98163.81;4966786;28;20086;-57
2022/12/04 06:21:41;;;;;;;20.50;9.57;;;;;;;6.72;100.00;98154.63;4965031;28;20122;-56
2022/12/04 06:24:12;;;;;;;18.10;8.20;;;;;;;6.39;100.00;98123.06;4966419;28;20046;-62
2022/12/04 06:26:39;;;;;;;16.45;7.75;;;;;;;6.42;100.00;98159.03;4966614;28;20051;-62
2022/12/04 06:29:25;;;;;;;17.02;7.53;;;;;;;6.28;100.00;98139.03;4965061;28;20086;-57
2022/12/04 06:31:52;;;;;;;20.27;8.52;;;;;;;6.47;100.00;98164.41;4966328;28;20047;-59
2022/12/04 06:34:19;;;;;;;17.60;8.70;;;;;;;6.53;100.00;98174.13;4966260;28;20093;-57
2022/12/04 06:36:45;;;;;;;15.13;8.30;;;;;;;6.48;100.00;98166.00;4966038;28;20585;-57
2022/12/04 06:39:12;;;;;;;21.70;9.30;;;;;;;6.10;100.00;98104.34;4966619;28;20845;-57
2022/12/04 06:41:44;;;;;;;17.15;7.85;;;;;;;6.32;100.00;98169.50;4965802;28;20145;-62
2022/12/04 06:44:10;;;;;;;18.00;8.65;;;;;;;6.51;100.00;98143.38;4965760;28;20141;-56
2022/12/04 06:46:37;;;;;;;17.95;9.18;;;;;;;6.36;100.00;98168.53;4965611;28;20133;-62
2022/12/04 06:49:11;;;;;;;15.40;8.63;;;;;;;5.99;100.00;98067.22;4964731;28;20510;-57
2022/12/04 06:51:39;;;;;;;17.35;7.97;;;;;;;6.73;100.00;98170.84;4965954;28;20145;-57
2022/12/04 06:54:06;;;;;;;15.23;8.35;;;;;;;6.43;100.00;98179.94;4964394;28;20498;-60
2022/12/04 06:56:33;;;;;;;12.07;7.88;;;;;;;6.77;100.00;98191.09;4966097;28;20083;-56
2022/12/04 06:59:02;;;;;;;17.90;8.95;;;;;;;6.93;100.00;98184.03;4965971;28;20054;-57
2022/12/04 07:01:31;;;;;;;12.75;7.40;;;;;;;6.86;100.00;98180.91;4966130;28;20082;-62
2022/12/04 07:03:59;;;;;;;13.60;7.53;;;;;;;6.99;100.00;98181.94;4966022;28;20062;-61
2022/12/04 07:06:29;;;;;;;15.73;9.85;;;;;;;7.12;100.00;98186.50;4965643;28;20050;-61
2022/12/04 07:09:06;;;;;;;14.93;8.25;;;;;;;7.16;100.00;98170.97;4965855;28;20062;-57
2022/12/04 07:11:33;;;;;;;10.88;6.40;;;;;;;7.06;100.00;98144.53;4965584;28;20046;-61
2022/12/04 07:14:00;;;;;;;13.43;7.10;;;;;;;7.30;100.00;98177.16;4965879;28;20062;-57
2022/12/04 07:16:28;;;;;;;10.48;5.72;;;;;;;7.04;100.00;98174.34;4965365;28;20054;-57
2022/12/04 07:19:00;;;;;;;17.33;7.47;;;;;;;6.81;100.00;98180.25;4965519;28;20057;-59
2022/12/04 07:21:29;;;;;;;12.05;6.45;;;;;;;7.01;100.00;98186.00;4965524;28;20050;-62
2022/12/04 07:23:58;;;;;;;15.20;8.27;;;;;;;6.84;100.00;98174.13;4963902;28;20086;-59
2022/12/04 07:26:26;;;;;;;16.02;8.77;;;;;;;6.69;100.00;98174.53;4964925;28;20471;-62
2022/12/04 07:28:53;;;;;;;19.50;10.90;;;;;;;6.63;100.00;98135.31;4965003;28;20055;-61
2022/12/04 07:31:22;;;;;;;18.40;10.75;;;;;;;7.11;100.00;98185.69;4964786;28;20051;-57
2022/12/04 07:33:49;;;;;;;23.45;14.07;;;;;;;7.08;100.00;98180.81;4965589;28;20415;-62
2022/12/04 07:36:19;;;;;;;20.95;10.27;;;;;;;7.17;100.00;98178.91;4965364;28;20059;-62
2022/12/04 07:38:46;;;;;;;16.98;9.35;;;;;;;7.17;100.00;98150.53;4965214;28;20625;-61
2022/12/04 07:41:13;;;;;;;18.00;9.20;;;;;;;7.12;100.00;98206.63;4965070;28;20065;-62
2022/12/04 07:43:41;;;;;;;22.27;11.80;;;;;;;7.09;100.00;98179.72;4965477;28;20055;-63
2022/12/04 07:46:20;;;;;;;22.23;9.95;;;;;;;7.20;100.00;98177.47;4965385;28;20141;-57
2022/12/04 07:48:47;;;;;;;18.40;10.07;;;;;;;7.03;100.00;98169.97;4965391;28;20055;-62
2022/12/04 07:51:19;;;;;;;23.83;11.88;;;;;;;7.24;100.00;98190.28;4965170;28;20058;-58
2022/12/04 07:53:47;;;;;;;22.02;9.77;;;;;;;6.99;100.00;98182.75;4965305;28;20051;-61
2022/12/04 07:56:15;;;;;;;20.60;9.48;;;;;;;6.40;100.00;98180.56;4965422;28;20050;-62
2022/12/04 07:58:42;;;;;;;17.67;8.07;;;;;;;6.29;100.00;98192.13;4965244;28;20059;-58
2022/12/04 08:01:13;;;;;;;15.25;8.88;;;;;;;6.39;100.00;98200.13;4968068;28;20051;-62
2022/12/04 08:03:41;;;;;;;15.88;8.70;;;;;;;6.22;100.00;98197.25;4969116;28;20138;-62
2022/12/04 08:06:16;;;;;;;31.02;10.10;;;;;;;6.08;100.00;98189.09;4969029;28;20497;-62
2022/12/04 08:08:42;;;;;;;19.60;9.32;;;;;;;6.36;100.00;98190.56;4968628;28;20059;-56
2022/12/04 08:11:12;;;;;;;16.05;8.00;;;;;;;6.06;100.00;98191.34;4968930;28;20073;-62
2022/12/04 08:13:38;;;;;;;11.00;6.32;;;;;;;5.89;100.00;98185.72;4968362;28;20058;-56
2022/12/04 08:16:07;;;;;;;19.90;9.27;;;;;;;5.99;100.00;98193.72;4968906;28;20055;-56
2022/12/04 08:18:34;;;;;;;18.40;9.85;;;;;;;5.47;100.00;98111.97;4968835;28;20375;-61
2022/12/04 08:21:06;;;;;;;20.80;10.23;;;;;;;6.21;100.00;98188.22;4967151;28;20506;-62
2022/12/04 08:23:33;;;;;;;22.95;9.43;;;;;;;6.20;100.00;98191.28;4968882;28;20054;-61
2022/12/04 08:26:01;;;;;;;20.67;10.90;;;;;;;6.41;100.00;98195.94;4968041;28;20059;-62
2022/12/04 08:28:29;;;;;;;17.63;8.73;;;;;;;6.22;100.00;98195.34;4967938;28;20146;-56
2022/12/04 08:31:02;;;;;;;10.32;5.88;;;;;;;6.12;100.00;98195.59;4967113;28;20051;-62
2022/12/04 08:33:30;;;;;;;18.27;10.10;;;;;;;6.35;100.00;98194.44;4967131;28;20473;-61
2022/12/04 08:35:58;;;;;;;21.02;11.57;;;;;;;6.18;100.00;98152.25;4967884;28;20141;-61
2022/12/04 08:38:25;;;;;;;22.17;12.10;;;;;;;6.69;100.00;98189.09;4967985;28;20142;-60
2022/12/04 08:40:52;;;;;;;20.58;12.90;;;;;;;5.23;100.00;97930.16;4967899;28;20610;-56
2022/12/04 08:43:19;;;;;;;14.07;6.80;;;;;;;6.66;100.00;98200.75;4968035;28;20061;-56
2022/12/04 08:45:54;;;;;;;16.83;8.38;;;;;;;6.52;100.00;98193.72;4967869;28;20050;-56
2022/12/04 08:48:21;;;;;;;18.67;8.27;;;;;;;6.42;100.00;98183.78;4968096;28;20066;-56
2022/12/04 08:50:48;;;;;;;18.00;8.43;;;;;;;6.53;100.00;98160.38;4967803;28;20054;-61
2022/12/04 08:53:16;;;;;;;19.27;10.88;;;;;;;6.81;100.00;98186.56;4968023;28;20058;-61
2022/12/04 08:55:43;;;;;;;13.60;6.88;;;;;;;6.73;100.00;98189.28;4966453;28;20102;-56
2022/12/04 08:58:10;;;;;;;14.35;9.05;;;;;;;6.94;100.00;98188.41;4967900;28;20486;-57
2022/12/04 09:00:37;;;;;;;19.00;11.55;;;;;;;7.08;100.00;98160.75;4967393;28;20109;-56
2022/12/04 09:03:05;;;;;;;14.23;8.07;;;;;;;7.20;100.00;98178.28;4967858;28;20449;-62
2022/12/04 09:05:33;;;;;;;13.57;7.35;;;;;;;7.28;100.00;98179.41;4966138;28;20058;-56
2022/12/04 09:08:00;;;;;;;8.80;4.47;;;;;;;6.63;100.00;98182.13;4967576;28;20090;-58
2022/12/04 09:10:28;;;;;;;8.98;5.13;;;;;;;6.17;100.00;98154.19;4966122;28;20680;-61
2022/12/04 09:12:56;;;;;;;25.65;12.85;;;;;;;6.06;100.00;98137.16;4966611;28;20094;-57
2022/12/04 09:15:23;;;;;;;14.30;7.93;;;;;;;6.60;100.00;98169.00;4967577;28;20046;-57
2022/12/04 09:17:51;;;;;;;12.02;7.55;;;;;;;6.11;100.00;98067.44;4965597;28;20102;-63
2022/12/04 09:20:19;;;;;;;28.83;15.63;;;;;;;6.99;100.00;98176.41;4967066;28;20081;-56
2022/12/04 09:22:47;;;;;;;16.25;8.90;;;;;;;6.45;100.00;98111.59;4966938;28;20051;-62
2022/12/04 09:25:30;;;;;;;9.68;5.28;;;;;;;6.61;100.00;98159.59;4967117;28;20400;-56
2022/12/04 09:27:59;;;;;;;15.25;7.72;;;;;;;6.69;100.00;98156.06;4966848;28;20442;-56
2022/12/04 09:30:27;;;;;;;34.88;12.60;;;;;;;6.82;100.00;98155.16;4967359;28;20129;-55
2022/12/04 09:32:55;;;;;;;24.23;11.10;;;;;;;6.69;100.00;98150.56;4967264;28;20051;-56
2022/12/04 09:35:22;;;;;;;26.08;11.57;;;;;;;6.98;100.00;98153.59;4981965;28;20061;-62
2022/12/04 09:37:49;;;;;;;23.35;10.13;;;;;;;7.22;100.00;98147.63;4967127;28;20057;-59
2022/12/04 09:40:42;;;;;;;18.63;10.90;;;;;;;7.51;100.00;98145.06;4967335;28;20133;-62
2022/12/04 09:43:22;;;;;;;16.17;9.20;;;;;;;7.74;100.00;98144.56;4966600;28;20054;-57
2022/12/04 09:45:55;;;;;;;11.43;6.78;;;;;;;8.00;100.00;98141.00;4967169;28;20817;-62
2022/12/04 09:48:31;;;;;;;8.27;5.37;;;;;;;7.63;100.00;98099.16;4966988;28;20055;-57
2022/12/04 09:51:01;;;;;;;8.30;5.07;;;;;;;7.51;100.00;98150.56;4966529;28;20155;-62
2022/12/04 09:53:41;;;;;;;10.18;5.68;;;;;;;7.83;100.00;98141.00;4965133;28;20533;-58
2022/12/04 09:56:16;;;;;;;13.15;8.30;;;;;;;7.47;100.00;98095.31;4965187;28;20125;-61
2022/12/04 09:58:54;;;;;;;48.45;24.23;;;;;;;8.04;100.00;98136.44;4967113;28;20057;-61
2022/12/04 10:01:26;;;;;;;14.68;8.02;;;;;;;8.08;100.00;98129.94;4965083;28;20050;-62
2022/12/04 10:03:54;;;;;;;12.25;7.05;;;;;;;7.83;100.00;98113.41;4967163;28;20057;-62
2022/12/04 10:06:39;;;;;;;14.02;5.55;;;;;;;7.73;100.00;98115.38;4965331;28;20058;-63
2022/12/04 10:09:20;;;;;;;13.82;5.60;;;;;;;8.16;100.00;98126.34;4966748;28;20066;-63
2022/12/04 10:12:29;;;;;;;11.02;5.80;;;;;;;8.13;100.00;98123.44;4966810;28;20058;-56
2022/12/04 10:15:31;;;;;;;7.68;4.43;;;;;;;7.14;100.00;98118.94;4967670;28;20074;-57
2022/12/04 10:18:02;;;;;;;10.15;6.43;;;;;;;7.03;100.00;98112.13;4966602;28;20051;-57
2022/12/04 10:21:01;;;;;;;12.70;7.32;;;;;;;7.48;100.00;98096.91;4966215;28;20050;-57
2022/12/04 10:23:48;;;;;;;9.02;5.78;;;;;;;7.51;100.00;98081.66;4966459;28;20055;-56
2022/12/04 10:26:23;;;;;;;9.68;5.20;;;;;;;7.79;100.00;98098.69;4966654;28;20481;-57
2022/12/04 10:29:00;;;;;;;10.32;5.60;;;;;;;8.10;100.00;98096.50;4965988;28;20096;-60
2022/12/04 10:31:31;;;;;;;9.75;5.90;;;;;;;8.18;100.00;98087.38;4965834;28;20065;-56
2022/12/04 10:34:14;;;;;;;9.27;4.82;;;;;;;7.25;100.00;98020.25;4966191;28;20153;-56
2022/12/04 10:36:50;;;;;;;14.77;7.72;;;;;;;7.56;100.00;98082.31;4965770;28;20150;-61
2022/12/04 10:39:36;;;;;;;9.75;5.60;;;;;;;7.65;100.00;98080.34;4966147;28;20053;-64
2022/12/04 10:42:23;;;;;;;10.15;5.55;;;;;;;7.43;100.00;98082.47;4965855;28;20338;-56
2022/12/04 10:44:52;;;;;;;11.40;6.20;;;;;;;7.29;100.00;98079.06;4965676;28;20055;-56
2022/12/04 10:47:22;;;;;;;12.05;6.13;;;;;;;6.89;100.00;97995.75;4965694;28;20142;-62
2022/12/04 10:50:00;;;;;;;13.20;5.95;;;;;;;7.00;100.00;98074.19;4966289;28;20062;-56
2022/12/04 10:52:30;;;;;;;23.80;11.18;;;;;;;6.97;100.00;98058.28;4965807;28;20126;-56
2022/12/04 10:55:00;;;;;;;12.32;6.03;;;;;;;7.18;100.00;98081.34;4966110;28;20058;-62
2022/12/04 10:57:43;;;;;;;9.88;5.38;;;;;;;7.49;100.00;98073.72;4965726;28;20577;-57
2022/12/04 11:00:23;;;;;;;9.37;5.30;;;;;;;7.62;100.00;98067.22;4965970;28;20058;-62
2022/12/04 11:02:56;;;;;;;12.98;6.93;;;;;;;7.68;100.00;98056.84;4965409;28;20062;-61
2022/12/04 11:05:28;;;;;;;14.73;6.60;;;;;;;7.76;100.00;98060.72;4966063;28;20517;-61
2022/12/04 11:07:58;;;;;;;17.33;9.40;;;;;;;7.76;100.00;98061.53;4965343;28;20321;-63
2022/12/04 11:10:33;;;;;;;25.88;11.05;;;;;;;7.90;100.00;98053.06;4965474;28;20058;-56
2022/12/04 11:13:09;;;;;;;11.38;4.68;;;;;;;7.26;100.00;98052.97;4965530;28;20054;-62
2022/12/04 11:15:49;;;;;;;11.45;5.57;;;;;;;6.98;100.00;97993.84;4965467;28;20130;-56
2022/12/04 11:18:29;;;;;;;20.67;9.52;;;;;;;7.55;100.00;98047.63;4965614;28;20070;-56
2022/12/04 11:21:14;;;;;;;22.58;11.05;;;;;;;7.63;100.00;98032.97;4965536;28;20134;-57
2022/12/04 11:23:47;;;;;;;10.85;5.68;;;;;;;7.64;100.00;98056.69;4965048;28;20481;-57
2022/12/04 11:26:35;;;;;;;6.97;4.35;;;;;;;7.34;100.00;98002.56;4963865;28;20043;-56
2022/12/04 11:29:04;;;;;;;11.60;5.75;;;;;;;7.73;100.00;98040.94;4963378;28;20069;-58
2022/12/04 11:31:33;;;;;;;19.90;9.23;;;;;;;7.96;100.00;98057.25;4964990;28;20047;-59
2022/12/04 11:34:06;;;;;;;8.95;4.53;;;;;;;7.54;100.00;98072.72;4979833;28;20124;-63
2022/12/04 11:36:41;;;;;;;10.60;4.75;;;;;;;7.01;100.00;98050.19;4964932;28;20062;-57
2022/12/04 11:39:12;;;;;;;15.23;6.35;;;;;;;7.10;100.00;98051.84;4965464;28;20050;-63
2022/12/04 11:41:40;;;;;;;12.50;6.60;;;;;;;7.17;100.00;98046.66;4964820;28;20134;-58
2022/12/04 11:44:25;;;;;;;9.60;4.72;;;;;;;7.22;100.00;98060.25;4964981;28;20046;-63
2022/12/04 11:46:55;;;;;;;12.10;7.07;;;;;;;7.44;100.00;98056.53;4964960;28;20149;-63
2022/12/04 11:49:25;;;;;;;8.02;5.15;;;;;;;7.56;100.00;98049.22;4964927;28;20063;-63
2022/12/04 11:52:16;;;;;;;10.52;5.05;;;;;;;7.56;100.00;98042.91;4964629;28;20063;-57
2022/12/04 11:54:55;;;;;;;13.75;6.80;;;;;;;7.53;100.00;98033.34;4962635;28;20074;-58
2022/12/04 11:57:45;;;;;;;9.98;4.80;;;;;;;7.02;100.00;98044.38;4965171;28;20059;-63